sensor_id;sensor_type;location;lat;lon;timestamp;pressure;altitude;pressure_sealevel;temperature;humidity
40650;BME280;26342;42.826;23.992;2022-09-29T00:01:52;94465.31;;;13.24;100.00
40650;BME280;26342;42.826;23.992;2022-09-29T00:04:18;94468.59;;;13.21;100.00
40650;BME280;26342;42.826;23.992;2022-09-29T00:06:44;94469.28;;;13.27;100.00
40650;BME280;26342;42.826;23.992;2022-09-29T00:09:09;94470.66;;;13.24;100.00
40650;BME280;26342;42.826;23.992;2022-09-29T00:11:35;94472.06;;;13.22;100.00
40650;BME280;26342;42.826;23.992;2022-09-29T00:14:00;94467.50;;;13.22;100.00
40650;BME280;26342;42.826;23.992;2022-09-29T00:16:25;94469.44;;;13.17;100.00
40650;BME280;26342;42.826;23.992;2022-09-29T00:18:54;94470.53;;;13.16;100.00
40650;BME280;26342;42.826;23.992;2022-09-29T00:21:21;94468.03;;;13.19;100.00
40650;BME280;26342;42.826;23.992;2022-09-29T00:23:48;94470.81;;;13.14;100.00
40650;BME280;26342;42.826;23.992;2022-09-29T00:26:22;94456.81;;;13.17;100.00
40650;BME280;26342;42.826;23.992;2022-09-29T00:28:53;94458.97;;;13.20;100.00
40650;BME280;26342;42.826;23.992;2022-09-29T00:31:21;94463.22;;;13.21;100.00
40650;BME280;26342;42.826;23.992;2022-09-29T00:33:46;94459.31;;;13.13;100.00
40650;BME280;26342;42.826;23.992;2022-09-29T00:36:14;94459.81;;;13.16;100.00
40650;BME280;26342;42.826;23.992;2022-09-29T00:38:41;94462.50;;;13.16;100.00
40650;BME280;26342;42.826;23.992;2022-09-29T00:41:09;94472.41;;;13.15;100.00
40650;BME280;26342;42.826;23.992;2022-09-29T00:46:50;94471.69;;;13.09;100.00
40650;BME280;26342;42.826;23.992;2022-09-29T00:52:10;94467.31;;;13.00;100.00
40650;BME280;26342;42.826;23.992;2022-09-29T00:54:43;94461.47;;;12.98;100.00
40650;BME280;26342;42.826;23.992;2022-09-29T00:57:09;94464.63;;;13.00;100.00
40650;BME280;26342;42.826;23.992;2022-09-29T01:02:07;94466.31;;;12.96;100.00
40650;BME280;26342;42.826;23.992;2022-09-29T01:04:33;94471.69;;;12.96;100.00
40650;BME280;26342;42.826;23.992;2022-09-29T01:06:59;94458.28;;;12.96;100.00
40650;BME280;26342;42.826;23.992;2022-09-29T01:09:28;94458.06;;;12.92;100.00
40650;BME280;26342;42.826;23.992;2022-09-29T01:11:56;94462.31;;;12.93;100.00
40650;BME280;26342;42.826;23.992;2022-09-29T01:14:26;94463.41;;;12.92;100.00
40650;BME280;26342;42.826;23.992;2022-09-29T01:16:53;94454.97;;;12.85;100.00
40650;BME280;26342;42.826;23.992;2022-09-29T01:30:19;94458.66;;;12.89;100.00
40650;BME280;26342;42.826;23.992;2022-09-29T01:41:17;94448.09;;;12.79;100.00
40650;BME280;26342;42.826;23.992;2022-09-29T01:46:47;94459.75;;;12.88;100.00
40650;BME280;26342;42.826;23.992;2022-09-29T01:49:16;94457.16;;;12.83;100.00
40650;BME280;26342;42.826;23.992;2022-09-29T01:52:08;94455.56;;;12.82;100.00
40650;BME280;26342;42.826;23.992;2022-09-29T01:54:59;94458.09;;;12.73;100.00
40650;BME280;26342;42.826;23.992;2022-09-29T01:57:38;94453.69;;;12.64;100.00
40650;BME280;26342;42.826;23.992;2022-09-29T02:00:12;94451.69;;;12.55;100.00
40650;BME280;26342;42.826;23.992;2022-09-29T02:05:21;94453.06;;;12.53;100.00
40650;BME280;26342;42.826;23.992;2022-09-29T02:07:49;94451.97;;;12.54;100.00
40650;BME280;26342;42.826;23.992;2022-09-29T02:10:20;94453.97;;;12.62;100.00
40650;BME280;26342;42.826;23.992;2022-09-29T02:12:49;94455.88;;;12.62;100.00
40650;BME280;26342;42.826;23.992;2022-09-29T02:15:21;94460.44;;;12.61;100.00
40650;BME280;26342;42.826;23.992;2022-09-29T02:17:51;94465.00;;;12.61;100.00
40650;BME280;26342;42.826;23.992;2022-09-29T02:20:18;94470.63;;;12.59;100.00
40650;BME280;26342;42.826;23.992;2022-09-29T02:22:45;94468.25;;;12.57;100.00
40650;BME280;26342;42.826;23.992;2022-09-29T02:25:12;94468.56;;;12.56;100.00
40650;BME280;26342;42.826;23.992;2022-09-29T02:27:39;94467.16;;;12.58;100.00
40650;BME280;26342;42.826;23.992;2022-09-29T02:30:05;94463.69;;;12.58;100.00
40650;BME280;26342;42.826;23.992;2022-09-29T02:32:32;94472.22;;;12.60;100.00
40650;BME280;26342;42.826;23.992;2022-09-29T02:34:59;94463.56;;;12.49;100.00
40650;BME280;26342;42.826;23.992;2022-09-29T02:42:38;94467.53;;;12.52;100.00
40650;BME280;26342;42.826;23.992;2022-09-29T02:45:44;94471.06;;;12.47;100.00
40650;BME280;26342;42.826;23.992;2022-09-29T02:51:17;94472.50;;;12.40;100.00
40650;BME280;26342;42.826;23.992;2022-09-29T02:53:56;94479.47;;;12.41;100.00
40650;BME280;26342;42.826;23.992;2022-09-29T02:56:27;94482.41;;;12.39;100.00
40650;BME280;26342;42.826;23.992;2022-09-29T02:59:00;94491.03;;;12.36;100.00
40650;BME280;26342;42.826;23.992;2022-09-29T03:01:32;94478.50;;;12.32;100.00
40650;BME280;26342;42.826;23.992;2022-09-29T03:03:58;94487.63;;;12.30;100.00
40650;BME280;26342;42.826;23.992;2022-09-29T03:06:25;94490.38;;;12.25;100.00
40650;BME280;26342;42.826;23.992;2022-09-29T03:08:51;94490.44;;;12.20;100.00
40650;BME280;26342;42.826;23.992;2022-09-29T03:11:16;94485.09;;;12.20;100.00
40650;BME280;26342;42.826;23.992;2022-09-29T03:13:42;94485.88;;;12.21;100.00
40650;BME280;26342;42.826;23.992;2022-09-29T03:16:07;94477.94;;;12.16;100.00
40650;BME280;26342;42.826;23.992;2022-09-29T03:18:33;94485.44;;;12.14;100.00
40650;BME280;26342;42.826;23.992;2022-09-29T03:20:58;94487.03;;;12.15;100.00
40650;BME280;26342;42.826;23.992;2022-09-29T03:23:23;94484.72;;;12.08;100.00
40650;BME280;26342;42.826;23.992;2022-09-29T03:25:49;94498.53;;;12.15;100.00
40650;BME280;26342;42.826;23.992;2022-09-29T03:28:14;94492.19;;;12.11;100.00
40650;BME280;26342;42.826;23.992;2022-09-29T03:30:43;94490.88;;;12.09;100.00
40650;BME280;26342;42.826;23.992;2022-09-29T03:33:09;94490.44;;;12.01;100.00
40650;BME280;26342;42.826;23.992;2022-09-29T03:35:35;94484.78;;;12.03;100.00
40650;BME280;26342;42.826;23.992;2022-09-29T03:38:00;94478.13;;;12.00;100.00
40650;BME280;26342;42.826;23.992;2022-09-29T03:40:26;94483.72;;;12.04;100.00
40650;BME280;26342;42.826;23.992;2022-09-29T03:42:52;94486.59;;;12.08;100.00
40650;BME280;26342;42.826;23.992;2022-09-29T03:45:17;94490.06;;;12.08;100.00
40650;BME280;26342;42.826;23.992;2022-09-29T03:47:43;94482.41;;;12.01;100.00
40650;BME280;26342;42.826;23.992;2022-09-29T03:50:08;94482.69;;;12.00;100.00
40650;BME280;26342;42.826;23.992;2022-09-29T03:52:34;94482.41;;;12.01;100.00
40650;BME280;26342;42.826;23.992;2022-09-29T03:54:59;94483.25;;;11.97;100.00
40650;BME280;26342;42.826;23.992;2022-09-29T03:57:25;94490.69;;;12.00;100.00
40650;BME280;26342;42.826;23.992;2022-09-29T03:59:50;94500.09;;;11.97;100.00
40650;BME280;26342;42.826;23.992;2022-09-29T04:02:17;94488.16;;;11.90;100.00
40650;BME280;26342;42.826;23.992;2022-09-29T04:04:44;94501.97;;;11.97;100.00
40650;BME280;26342;42.826;23.992;2022-09-29T04:07:09;94498.50;;;11.96;100.00
40650;BME280;26342;42.826;23.992;2022-09-29T04:09:35;94492.06;;;11.97;100.00
40650;BME280;26342;42.826;23.992;2022-09-29T04:12:00;94482.19;;;11.98;100.00
40650;BME280;26342;42.826;23.992;2022-09-29T04:14:26;94462.59;;;12.02;100.00
40650;BME280;26342;42.826;23.992;2022-09-29T04:16:51;94454.53;;;11.84;100.00
40650;BME280;26342;42.826;23.992;2022-09-29T04:19:16;94482.00;;;11.89;100.00
40650;BME280;26342;42.826;23.992;2022-09-29T04:21:42;94490.75;;;11.71;100.00
40650;BME280;26342;42.826;23.992;2022-09-29T04:24:07;94476.66;;;11.65;100.00
40650;BME280;26342;42.826;23.992;2022-09-29T04:26:33;94483.53;;;11.71;100.00
40650;BME280;26342;42.826;23.992;2022-09-29T04:28:58;94488.31;;;11.74;100.00
40650;BME280;26342;42.826;23.992;2022-09-29T04:31:23;94495.78;;;11.78;100.00
40650;BME280;26342;42.826;23.992;2022-09-29T04:33:49;94483.31;;;11.68;100.00
40650;BME280;26342;42.826;23.992;2022-09-29T04:36:14;94488.50;;;11.83;100.00
40650;BME280;26342;42.826;23.992;2022-09-29T04:38:40;94483.69;;;11.85;100.00
40650;BME280;26342;42.826;23.992;2022-09-29T04:41:05;94494.75;;;11.97;100.00
40650;BME280;26342;42.826;23.992;2022-09-29T04:43:31;94492.88;;;11.98;100.00
40650;BME280;26342;42.826;23.992;2022-09-29T04:46:04;94491.22;;;12.02;100.00
40650;BME280;26342;42.826;23.992;2022-09-29T04:48:29;94485.16;;;12.15;100.00
40650;BME280;26342;42.826;23.992;2022-09-29T04:50:55;94468.56;;;12.18;100.00
40650;BME280;26342;42.826;23.992;2022-09-29T04:53:20;94470.78;;;12.30;100.00
40650;BME280;26342;42.826;23.992;2022-09-29T04:55:46;94466.97;;;12.36;100.00
40650;BME280;26342;42.826;23.992;2022-09-29T04:58:11;94451.69;;;12.37;100.00
40650;BME280;26342;42.826;23.992;2022-09-29T05:00:36;94461.31;;;12.38;100.00
40650;BME280;26342;42.826;23.992;2022-09-29T05:03:02;94464.78;;;12.38;100.00
40650;BME280;26342;42.826;23.992;2022-09-29T05:05:27;94471.00;;;12.34;100.00
40650;BME280;26342;42.826;23.992;2022-09-29T05:07:53;94467.97;;;12.21;100.00
40650;BME280;26342;42.826;23.992;2022-09-29T05:10:18;94471.13;;;12.23;100.00
40650;BME280;26342;42.826;23.992;2022-09-29T05:12:47;94477.22;;;12.29;100.00
40650;BME280;26342;42.826;23.992;2022-09-29T05:15:14;94463.84;;;12.29;100.00
40650;BME280;26342;42.826;23.992;2022-09-29T05:17:39;94457.91;;;12.32;100.00
40650;BME280;26342;42.826;23.992;2022-09-29T05:20:05;94464.13;;;12.27;100.00
40650;BME280;26342;42.826;23.992;2022-09-29T05:22:30;94460.72;;;12.22;100.00
40650;BME280;26342;42.826;23.992;2022-09-29T05:24:56;94472.38;;;12.31;100.00
40650;BME280;26342;42.826;23.992;2022-09-29T05:27:21;94471.22;;;12.37;100.00
40650;BME280;26342;42.826;23.992;2022-09-29T05:29:46;94476.56;;;12.37;100.00
40650;BME280;26342;42.826;23.992;2022-09-29T05:32:12;94470.50;;;12.32;100.00
40650;BME280;26342;42.826;23.992;2022-09-29T05:34:37;94470.91;;;12.39;100.00
40650;BME280;26342;42.826;23.992;2022-09-29T05:37:03;94467.59;;;12.47;100.00
40650;BME280;26342;42.826;23.992;2022-09-29T05:39:29;94476.06;;;12.54;100.00
40650;BME280;26342;42.826;23.992;2022-09-29T05:41:58;94489.81;;;12.66;100.00
40650;BME280;26342;42.826;23.992;2022-09-29T05:44:23;94471.50;;;12.73;100.00
40650;BME280;26342;42.826;23.992;2022-09-29T05:46:48;94491.78;;;12.93;100.00
40650;BME280;26342;42.826;23.992;2022-09-29T05:49:14;94496.16;;;13.03;100.00
40650;BME280;26342;42.826;23.992;2022-09-29T05:51:39;94502.75;;;13.10;100.00
40650;BME280;26342;42.826;23.992;2022-09-29T05:54:05;94497.00;;;13.17;100.00
40650;BME280;26342;42.826;23.992;2022-09-29T05:56:30;94484.66;;;13.21;100.00
40650;BME280;26342;42.826;23.992;2022-09-29T05:58:55;94485.34;;;13.27;100.00
40650;BME280;26342;42.826;23.992;2022-09-29T06:01:25;94472.38;;;13.34;100.00
40650;BME280;26342;42.826;23.992;2022-09-29T06:03:53;94479.66;;;13.61;100.00
40650;BME280;26342;42.826;23.992;2022-09-29T06:06:21;94474.59;;;13.73;100.00
40650;BME280;26342;42.826;23.992;2022-09-29T06:08:48;94485.72;;;13.80;100.00
40650;BME280;26342;42.826;23.992;2022-09-29T06:11:16;94462.75;;;13.88;100.00
40650;BME280;26342;42.826;23.992;2022-09-29T06:13:47;94468.13;;;14.02;100.00
40650;BME280;26342;42.826;23.992;2022-09-29T06:16:14;94468.50;;;14.09;100.00
40650;BME280;26342;42.826;23.992;2022-09-29T06:18:40;94468.38;;;14.28;100.00
40650;BME280;26342;42.826;23.992;2022-09-29T06:21:09;94471.19;;;14.45;100.00
40650;BME280;26342;42.826;23.992;2022-09-29T06:23:35;94479.38;;;14.54;100.00
40650;BME280;26342;42.826;23.992;2022-09-29T06:26:06;94474.16;;;14.71;100.00
40650;BME280;26342;42.826;23.992;2022-09-29T06:28:32;94474.09;;;14.85;100.00
40650;BME280;26342;42.826;23.992;2022-09-29T06:30:59;94478.81;;;15.01;100.00
40650;BME280;26342;42.826;23.992;2022-09-29T06:33:28;94467.06;;;15.20;100.00
40650;BME280;26342;42.826;23.992;2022-09-29T06:35:55;94466.25;;;15.42;100.00
40650;BME280;26342;42.826;23.992;2022-09-29T06:38:39;94459.03;;;15.59;100.00
40650;BME280;26342;42.826;23.992;2022-09-29T06:41:05;94473.84;;;15.79;100.00
40650;BME280;26342;42.826;23.992;2022-09-29T06:43:31;94473.41;;;15.95;100.00
40650;BME280;26342;42.826;23.992;2022-09-29T06:45:57;94466.13;;;15.95;100.00
40650;BME280;26342;42.826;23.992;2022-09-29T06:48:22;94462.53;;;16.08;100.00
40650;BME280;26342;42.826;23.992;2022-09-29T06:50:47;94467.97;;;16.26;100.00
40650;BME280;26342;42.826;23.992;2022-09-29T06:53:13;94471.50;;;16.43;100.00
40650;BME280;26342;42.826;23.992;2022-09-29T06:55:38;94469.28;;;16.54;100.00
40650;BME280;26342;42.826;23.992;2022-09-29T06:58:04;94461.06;;;16.68;100.00
40650;BME280;26342;42.826;23.992;2022-09-29T07:00:30;94488.00;;;16.94;100.00
40650;BME280;26342;42.826;23.992;2022-09-29T07:02:55;94488.97;;;17.07;100.00
40650;BME280;26342;42.826;23.992;2022-09-29T07:05:21;94492.25;;;17.29;100.00
40650;BME280;26342;42.826;23.992;2022-09-29T07:07:49;94486.84;;;17.47;100.00
40650;BME280;26342;42.826;23.992;2022-09-29T07:10:15;94493.63;;;17.70;100.00
40650;BME280;26342;42.826;23.992;2022-09-29T07:12:40;94490.69;;;17.84;100.00
40650;BME280;26342;42.826;23.992;2022-09-29T07:15:09;94500.94;;;17.99;100.00
40650;BME280;26342;42.826;23.992;2022-09-29T07:17:34;94488.03;;;18.13;100.00
40650;BME280;26342;42.826;23.992;2022-09-29T07:20:00;94488.53;;;18.36;100.00
40650;BME280;26342;42.826;23.992;2022-09-29T07:22:25;94494.50;;;18.51;92.23
40650;BME280;26342;42.826;23.992;2022-09-29T07:24:50;94496.31;;;18.67;96.32
40650;BME280;26342;42.826;23.992;2022-09-29T07:27:18;94498.09;;;18.84;86.58
40650;BME280;26342;42.826;23.992;2022-09-29T07:29:49;94496.50;;;19.04;81.60
40650;BME280;26342;42.826;23.992;2022-09-29T07:32:16;94506.16;;;19.26;82.06
40650;BME280;26342;42.826;23.992;2022-09-29T07:34:42;94502.75;;;19.50;77.40
40650;BME280;26342;42.826;23.992;2022-09-29T07:37:07;94505.78;;;19.69;76.79
40650;BME280;26342;42.826;23.992;2022-09-29T07:39:32;94503.66;;;19.87;76.41
40650;BME280;26342;42.826;23.992;2022-09-29T07:41:58;94513.25;;;19.97;72.71
40650;BME280;26342;42.826;23.992;2022-09-29T07:44:23;94511.34;;;19.97;77.24
40650;BME280;26342;42.826;23.992;2022-09-29T07:46:49;94510.00;;;20.03;73.42
40650;BME280;26342;42.826;23.992;2022-09-29T07:49:14;94505.16;;;20.09;73.80
40650;BME280;26342;42.826;23.992;2022-09-29T07:51:40;94512.81;;;20.19;74.32
40650;BME280;26342;42.826;23.992;2022-09-29T07:54:06;94509.78;;;20.21;73.55
40650;BME280;26342;42.826;23.992;2022-09-29T07:56:32;94498.81;;;20.29;67.45
40650;BME280;26342;42.826;23.992;2022-09-29T07:58:58;94505.03;;;20.30;68.11
40650;BME280;26342;42.826;23.992;2022-09-29T08:01:23;94496.81;;;20.39;65.21
40650;BME280;26342;42.826;23.992;2022-09-29T08:03:51;94502.00;;;20.44;66.25
40650;BME280;26342;42.826;23.992;2022-09-29T08:06:18;94492.88;;;20.48;65.79
40650;BME280;26342;42.826;23.992;2022-09-29T08:08:44;94488.22;;;20.61;64.48
40650;BME280;26342;42.826;23.992;2022-09-29T08:11:12;94488.91;;;20.70;64.04
40650;BME280;26342;42.826;23.992;2022-09-29T08:13:38;94497.56;;;20.76;67.16
40650;BME280;26342;42.826;23.992;2022-09-29T08:16:06;94504.56;;;20.89;65.31
40650;BME280;26342;42.826;23.992;2022-09-29T08:18:33;94507.13;;;20.98;61.80
40650;BME280;26342;42.826;23.992;2022-09-29T08:20:58;94508.56;;;21.07;62.31
40650;BME280;26342;42.826;23.992;2022-09-29T08:23:24;94501.97;;;21.21;62.54
40650;BME280;26342;42.826;23.992;2022-09-29T08:25:52;94504.53;;;21.41;63.00
40650;BME280;26342;42.826;23.992;2022-09-29T08:28:22;94503.94;;;21.64;58.99
40650;BME280;26342;42.826;23.992;2022-09-29T08:33:13;94500.16;;;21.96;60.93
40650;BME280;26342;42.826;23.992;2022-09-29T08:35:40;94505.06;;;22.22;53.57
40650;BME280;26342;42.826;23.992;2022-09-29T08:38:05;94506.63;;;22.39;55.06
40650;BME280;26342;42.826;23.992;2022-09-29T08:40:31;94493.88;;;22.59;54.27
40650;BME280;26342;42.826;23.992;2022-09-29T08:43:17;94489.72;;;22.81;50.41
40650;BME280;26342;42.826;23.992;2022-09-29T08:46:00;94501.03;;;22.99;51.92
40650;BME280;26342;42.826;23.992;2022-09-29T08:48:30;94510.78;;;22.84;50.95
40650;BME280;26342;42.826;23.992;2022-09-29T08:50:59;94502.88;;;22.95;52.37
40650;BME280;26342;42.826;23.992;2022-09-29T08:53:30;94506.81;;;23.17;51.49
40650;BME280;26342;42.826;23.992;2022-09-29T08:56:02;94515.50;;;23.42;46.56
40650;BME280;26342;42.826;23.992;2022-09-29T08:58:28;94507.84;;;23.47;48.02
40650;BME280;26342;42.826;23.992;2022-09-29T09:09:43;94520.94;;;23.80;48.12
40650;BME280;26342;42.826;23.992;2022-09-29T09:25:48;94552.66;;;23.15;52.36
40650;BME280;26342;42.826;23.992;2022-09-29T09:28:26;94557.81;;;23.20;55.82
40650;BME280;26342;42.826;23.992;2022-09-29T09:30:57;94560.09;;;23.18;55.71
40650;BME280;26342;42.826;23.992;2022-09-29T09:36:04;94559.88;;;23.07;56.13
40650;BME280;26342;42.826;23.992;2022-09-29T09:38:43;94555.56;;;23.06;59.42
40650;BME280;26342;42.826;23.992;2022-09-29T09:41:14;94560.69;;;23.07;56.33
40650;BME280;26342;42.826;23.992;2022-09-29T09:43:47;94555.34;;;22.95;55.81
40650;BME280;26342;42.826;23.992;2022-09-29T09:46:45;94560.16;;;23.02;56.36
40650;BME280;26342;42.826;23.992;2022-09-29T09:55:12;94538.22;;;22.95;52.00
40650;BME280;26342;42.826;23.992;2022-09-29T10:00:13;94539.00;;;23.69;51.96
40650;BME280;26342;42.826;23.992;2022-09-29T10:02:48;94542.09;;;24.10;50.82
40650;BME280;26342;42.826;23.992;2022-09-29T10:05:29;94540.47;;;24.51;49.19
40650;BME280;26342;42.826;23.992;2022-09-29T10:07:58;94532.31;;;24.77;50.78
40650;BME280;26342;42.826;23.992;2022-09-29T10:10:26;94525.63;;;25.01;46.61
40650;BME280;26342;42.826;23.992;2022-09-29T10:12:57;94533.47;;;25.33;47.57
40650;BME280;26342;42.826;23.992;2022-09-29T10:18:21;94540.00;;;25.88;44.07
40650;BME280;26342;42.826;23.992;2022-09-29T10:20:47;94531.28;;;26.13;49.88
40650;BME280;26342;42.826;23.992;2022-09-29T10:25:56;94537.06;;;26.45;44.22
40650;BME280;26342;42.826;23.992;2022-09-29T10:28:24;94526.72;;;26.72;46.02
40650;BME280;26342;42.826;23.992;2022-09-29T10:30:51;94530.75;;;26.89;41.30
40650;BME280;26342;42.826;23.992;2022-09-29T10:33:20;94539.03;;;26.99;42.42
40650;BME280;26342;42.826;23.992;2022-09-29T10:35:48;94541.09;;;27.10;41.07
40650;BME280;26342;42.826;23.992;2022-09-29T10:38:24;94534.06;;;27.12;42.01
40650;BME280;26342;42.826;23.992;2022-09-29T10:40:57;94520.81;;;26.63;39.89
40650;BME280;26342;42.826;23.992;2022-09-29T10:43:34;94521.88;;;26.51;42.84
40650;BME280;26342;42.826;23.992;2022-09-29T10:46:00;94513.28;;;26.49;44.12
40650;BME280;26342;42.826;23.992;2022-09-29T10:48:26;94516.47;;;26.62;41.43
40650;BME280;26342;42.826;23.992;2022-09-29T10:51:02;94524.78;;;26.73;44.69
40650;BME280;26342;42.826;23.992;2022-09-29T10:53:36;94510.31;;;26.76;41.92
40650;BME280;26342;42.826;23.992;2022-09-29T10:56:20;94511.59;;;26.89;37.65
40650;BME280;26342;42.826;23.992;2022-09-29T10:58:57;94517.13;;;26.99;45.22
40650;BME280;26342;42.826;23.992;2022-09-29T11:01:25;94507.34;;;26.95;39.99
40650;BME280;26342;42.826;23.992;2022-09-29T11:04:05;94514.44;;;27.03;44.95
40650;BME280;26342;42.826;23.992;2022-09-29T11:06:33;94516.13;;;27.25;44.40
40650;BME280;26342;42.826;23.992;2022-09-29T11:09:03;94513.00;;;27.31;39.90
40650;BME280;26342;42.826;23.992;2022-09-29T11:13:57;94512.97;;;27.20;40.74
40650;BME280;26342;42.826;23.992;2022-09-29T11:16:41;94514.78;;;26.98;36.69
40650;BME280;26342;42.826;23.992;2022-09-29T11:19:13;94515.94;;;27.00;38.25
40650;BME280;26342;42.826;23.992;2022-09-29T11:30:23;94510.09;;;26.98;36.76
40650;BME280;26342;42.826;23.992;2022-09-29T11:33:01;94504.56;;;26.91;35.56
40650;BME280;26342;42.826;23.992;2022-09-29T11:41:42;94517.25;;;27.14;37.87
40650;BME280;26342;42.826;23.992;2022-09-29T11:43:53;94516.88;;;27.19;39.90
40650;BME280;26342;42.826;23.992;2022-09-29T11:46:34;94509.09;;;27.28;40.48
40650;BME280;26342;42.826;23.992;2022-09-29T12:00:15;94512.13;;;27.09;37.15
40650;BME280;26342;42.826;23.992;2022-09-29T12:02:50;94511.75;;;27.10;36.74
40650;BME280;26342;42.826;23.992;2022-09-29T12:05:34;94516.03;;;27.08;36.54
40650;BME280;26342;42.826;23.992;2022-09-29T12:11:03;94510.94;;;27.06;38.83
40650;BME280;26342;42.826;23.992;2022-09-29T12:13:50;94512.13;;;27.09;37.97
40650;BME280;26342;42.826;23.992;2022-09-29T12:16:20;94511.41;;;27.19;42.99
40650;BME280;26342;42.826;23.992;2022-09-29T12:18:54;94517.81;;;26.86;35.54
40650;BME280;26342;42.826;23.992;2022-09-29T12:21:30;94520.53;;;26.79;38.82
40650;BME280;26342;42.826;23.992;2022-09-29T12:23:57;94512.16;;;26.61;39.23
40650;BME280;26342;42.826;23.992;2022-09-29T12:26:24;94526.69;;;26.65;37.31
40650;BME280;26342;42.826;23.992;2022-09-29T12:29:27;94527.38;;;26.55;41.05
40650;BME280;26342;42.826;23.992;2022-09-29T12:31:57;94529.25;;;26.43;39.79
40650;BME280;26342;42.826;23.992;2022-09-29T12:34:41;94515.59;;;26.47;41.41
40650;BME280;26342;42.826;23.992;2022-09-29T12:37:33;94515.94;;;26.42;40.46
40650;BME280;26342;42.826;23.992;2022-09-29T12:40:16;94510.16;;;26.54;39.45
40650;BME280;26342;42.826;23.992;2022-09-29T12:45:47;94504.59;;;26.40;38.69
40650;BME280;26342;42.826;23.992;2022-09-29T12:57:10;94512.72;;;26.36;39.14
40650;BME280;26342;42.826;23.992;2022-09-29T13:13:07;94526.19;;;26.11;40.80
40650;BME280;26342;42.826;23.992;2022-09-29T13:27:23;94534.59;;;25.92;42.20
40650;BME280;26342;42.826;23.992;2022-09-29T13:29:59;94531.03;;;25.88;40.45
40650;BME280;26342;42.826;23.992;2022-09-29T13:32:27;94530.22;;;25.84;42.85
40650;BME280;26342;42.826;23.992;2022-09-29T13:34:58;94529.38;;;25.80;43.25
40650;BME280;26342;42.826;23.992;2022-09-29T13:37:27;94531.66;;;25.74;43.43
40650;BME280;26342;42.826;23.992;2022-09-29T13:39:56;94536.78;;;25.76;42.38
40650;BME280;26342;42.826;23.992;2022-09-29T13:42:42;94541.34;;;25.68;42.55
40650;BME280;26342;42.826;23.992;2022-09-29T13:47:50;94541.09;;;25.50;40.65
40650;BME280;26342;42.826;23.992;2022-09-29T13:58:35;94533.66;;;25.17;52.86
40650;BME280;26342;42.826;23.992;2022-09-29T14:01:08;94538.63;;;25.08;50.00
40650;BME280;26342;42.826;23.992;2022-09-29T14:03:43;94540.81;;;24.99;50.21
40650;BME280;26342;42.826;23.992;2022-09-29T14:06:22;94538.75;;;24.92;50.59
40650;BME280;26342;42.826;23.992;2022-09-29T14:09:06;94531.88;;;24.75;49.58
40650;BME280;26342;42.826;23.992;2022-09-29T14:11:38;94536.81;;;24.66;49.12
40650;BME280;26342;42.826;23.992;2022-09-29T14:28:04;94543.91;;;24.48;49.90
40650;BME280;26342;42.826;23.992;2022-09-29T14:35:37;94544.50;;;24.34;49.05
40650;BME280;26342;42.826;23.992;2022-09-29T14:38:19;94545.53;;;24.30;49.53
40650;BME280;26342;42.826;23.992;2022-09-29T14:43:24;94554.06;;;24.05;51.73
40650;BME280;26342;42.826;23.992;2022-09-29T14:49:11;94568.22;;;23.91;56.29
40650;BME280;26342;42.826;23.992;2022-09-29T15:02:26;94581.19;;;23.59;58.75
40650;BME280;26342;42.826;23.992;2022-09-29T15:04:53;94583.75;;;23.52;58.95
40650;BME280;26342;42.826;23.992;2022-09-29T15:07:24;94588.38;;;23.48;61.67
40650;BME280;26342;42.826;23.992;2022-09-29T15:09:56;94583.75;;;23.33;57.95
40650;BME280;26342;42.826;23.992;2022-09-29T15:14:50;94590.91;;;23.22;62.78
40650;BME280;26342;42.826;23.992;2022-09-29T15:20:09;94599.28;;;22.97;58.25
40650;BME280;26342;42.826;23.992;2022-09-29T15:27:55;94599.75;;;22.83;55.76
40650;BME280;26342;42.826;23.992;2022-09-29T15:30:23;94604.41;;;22.83;59.97
40650;BME280;26342;42.826;23.992;2022-09-29T15:32:49;94606.00;;;22.68;56.82
40650;BME280;26342;42.826;23.992;2022-09-29T15:35:21;94611.31;;;22.65;58.80
40650;BME280;26342;42.826;23.992;2022-09-29T15:40:57;94630.94;;;22.26;56.65
40650;BME280;26342;42.826;23.992;2022-09-29T15:43:28;94627.25;;;22.19;56.91
40650;BME280;26342;42.826;23.992;2022-09-29T15:45:59;94633.19;;;22.09;55.21
40650;BME280;26342;42.826;23.992;2022-09-29T15:48:27;94630.38;;;22.05;56.15
40650;BME280;26342;42.826;23.992;2022-09-29T15:50:54;94632.41;;;22.08;56.98
40650;BME280;26342;42.826;23.992;2022-09-29T15:53:21;94636.41;;;21.98;61.26
40650;BME280;26342;42.826;23.992;2022-09-29T15:55:49;94657.00;;;21.99;65.55
40650;BME280;26342;42.826;23.992;2022-09-29T15:58:33;94676.94;;;21.91;66.06
40650;BME280;26342;42.826;23.992;2022-09-29T16:01:02;94670.75;;;21.79;62.08
40650;BME280;26342;42.826;23.992;2022-09-29T16:03:59;94681.16;;;21.77;65.17
40650;BME280;26342;42.826;23.992;2022-09-29T16:06:30;94673.19;;;21.56;61.25
40650;BME280;26342;42.826;23.992;2022-09-29T16:09:02;94679.31;;;21.40;62.99
40650;BME280;26342;42.826;23.992;2022-09-29T16:11:34;94685.31;;;21.22;62.89
40650;BME280;26342;42.826;23.992;2022-09-29T16:14:02;94689.25;;;21.24;67.43
40650;BME280;26342;42.826;23.992;2022-09-29T16:16:34;94683.28;;;21.18;67.14
40650;BME280;26342;42.826;23.992;2022-09-29T16:19:06;94685.66;;;21.20;67.86
40650;BME280;26342;42.826;23.992;2022-09-29T16:21:35;94694.25;;;21.22;67.86
40650;BME280;26342;42.826;23.992;2022-09-29T16:24:07;94698.88;;;21.22;68.81
40650;BME280;26342;42.826;23.992;2022-09-29T16:26:37;94705.31;;;21.17;69.29
40650;BME280;26342;42.826;23.992;2022-09-29T16:31:33;94689.63;;;21.10;71.73